Weather at Fethiye Forest Management Directorate Heliport

Public forecast

Using degrees Celsius for public forecast. Weather courtesy of forecast.io.

Closest aviation weather report (METAR) to Fethiye Forest Management Directorate Heliport

Report is more than 6 hours old.

Closest report is Dalaman International Airport, 18.0 nm (33.4 km) W.

2022/11/14 15:20 (retrieved 2 years ago)

LTBS 141520Z 10003KT CAVOK 16/11 Q1017 NOSIG RMK RWY19 11005KT SKC

Closest aviation forecast (TAF) to Fethiye Forest Management Directorate Heliport

Forecast is more than 12 hours old.

Closest forecast is Dalaman International Airport, 18.0 nm (33.4 km) W.

2023/02/22 18:03 (retrieved 1 year ago)

TAF LTBS 221640Z 2218/2318 VRB02KT CAVOK BECMG 2308/2310 22012KT FEW030 BECMG 2315/2317 VRB02KT CAVOK